<?xml version="1.0" encoding="utf-8"?>
<gpx xmlns:xsi="http://www.w3.org/2001/XMLSchema-instance" xmlns:xsd="http://www.w3.org/2001/XMLSchema" version="1.1" creator="Shapelink.com" xmlns="http://www.topografix.com/GPX/1/1" xmlns:gpxtpx="http://www.garmin.com/xmlschemas/TrackPointExtension/v1">
  <metadata>
    <name>Övrigt 2.12 km, 2019-04-30</name>
    <desc></desc>
    <author><name>Marian Moron</name></author> 
    <time>2019-04-30T20:44:45Z</time>
  </metadata>
  <trk>
    <name>Övrigt 2.12 km, 2019-04-30</name>
    <trkseg>
      <trkpt lat="51.22967491514" lon="4.457851740397">
        <ele>0</ele>
        <time>2019-04-30T20:44:45Z</time>
      </trkpt>
      <trkpt lat="51.229890497608" lon="4.458303105712">
        <ele>0</ele>
        <time>2019-04-30T20:45:06Z</time>
      </trkpt>
      <trkpt lat="51.230047574414" lon="4.458797637812">
        <ele>0</ele>
        <time>2019-04-30T20:45:33Z</time>
      </trkpt>
      <trkpt lat="51.230467088509" lon="4.458888413789">
        <ele>0</ele>
        <time>2019-04-30T20:46:05Z</time>
      </trkpt>
      <trkpt lat="51.230551913337" lon="4.459604228049">
        <ele>0</ele>
        <time>2019-04-30T20:46:40Z</time>
      </trkpt>
      <trkpt lat="51.230585776213" lon="4.459698775881">
        <ele>0</ele>
        <time>2019-04-30T20:46:45Z</time>
      </trkpt>
      <trkpt lat="51.230624332953" lon="4.459751917127">
        <ele>0</ele>
        <time>2019-04-30T20:46:51Z</time>
      </trkpt>
      <trkpt lat="51.230853577918" lon="4.459688382325">
        <ele>0</ele>
        <time>2019-04-30T20:47:12Z</time>
      </trkpt>
      <trkpt lat="51.231296728971" lon="4.459720485002">
        <ele>1.2</ele>
        <time>2019-04-30T20:47:41Z</time>
      </trkpt>
      <trkpt lat="51.231417260693" lon="4.45967874314">
        <ele>0</ele>
        <time>2019-04-30T20:48:05Z</time>
      </trkpt>
      <trkpt lat="51.231664275286" lon="4.459631972138">
        <ele>0</ele>
        <time>2019-04-30T20:48:25Z</time>
      </trkpt>
      <trkpt lat="51.231758320204" lon="4.459566928594">
        <ele>0</ele>
        <time>2019-04-30T20:48:42Z</time>
      </trkpt>
      <trkpt lat="51.231786399569" lon="4.459587967163">
        <ele>0</ele>
        <time>2019-04-30T20:48:45Z</time>
      </trkpt>
      <trkpt lat="51.231842642118" lon="4.459719060079">
        <ele>0</ele>
        <time>2019-04-30T20:48:56Z</time>
      </trkpt>
      <trkpt lat="51.231914894096" lon="4.460015527882">
        <ele>0</ele>
        <time>2019-04-30T20:49:32Z</time>
      </trkpt>
      <trkpt lat="51.232049088315" lon="4.460713153419">
        <ele>0</ele>
        <time>2019-04-30T20:50:10Z</time>
      </trkpt>
      <trkpt lat="51.23205118379" lon="4.461094697507">
        <ele>0</ele>
        <time>2019-04-30T20:50:49Z</time>
      </trkpt>
      <trkpt lat="51.232095524041" lon="4.461389740387">
        <ele>0</ele>
        <time>2019-04-30T20:51:03Z</time>
      </trkpt>
      <trkpt lat="51.2321341646" lon="4.46171386846">
        <ele>0</ele>
        <time>2019-04-30T20:51:17Z</time>
      </trkpt>
      <trkpt lat="51.232138774645" lon="4.461793999424">
        <ele>0</ele>
        <time>2019-04-30T20:51:21Z</time>
      </trkpt>
      <trkpt lat="51.23219116152" lon="4.462460109017">
        <ele>0</ele>
        <time>2019-04-30T20:51:56Z</time>
      </trkpt>
      <trkpt lat="51.232136176256" lon="4.462492044056">
        <ele>0</ele>
        <time>2019-04-30T20:52:03Z</time>
      </trkpt>
      <trkpt lat="51.232067360857" lon="4.462771077507">
        <ele>0</ele>
        <time>2019-04-30T20:52:16Z</time>
      </trkpt>
      <trkpt lat="51.232052524894" lon="4.462839725268">
        <ele>0</ele>
        <time>2019-04-30T20:52:23Z</time>
      </trkpt>
      <trkpt lat="51.232029977583" lon="4.462992694943">
        <ele>0</ele>
        <time>2019-04-30T20:52:31Z</time>
      </trkpt>
      <trkpt lat="51.23202771447" lon="4.463225879401">
        <ele>0</ele>
        <time>2019-04-30T20:52:44Z</time>
      </trkpt>
      <trkpt lat="51.231726971898" lon="4.463600131236">
        <ele>3</ele>
        <time>2019-04-30T20:53:19Z</time>
      </trkpt>
      <trkpt lat="51.231396808857" lon="4.463181455331">
        <ele>0</ele>
        <time>2019-04-30T20:54:04Z</time>
      </trkpt>
      <trkpt lat="51.231329586019" lon="4.463142647134">
        <ele>0</ele>
        <time>2019-04-30T20:54:10Z</time>
      </trkpt>
      <trkpt lat="51.230926835724" lon="4.463294527162">
        <ele>2</ele>
        <time>2019-04-30T20:55:09Z</time>
      </trkpt>
      <trkpt lat="51.230516960814" lon="4.463311626238">
        <ele>19.8</ele>
        <time>2019-04-30T20:55:51Z</time>
      </trkpt>
      <trkpt lat="51.230433057995" lon="4.463642962745">
        <ele>0</ele>
        <time>2019-04-30T20:56:42Z</time>
      </trkpt>
      <trkpt lat="51.230491479838" lon="4.463888636234">
        <ele>0</ele>
        <time>2019-04-30T20:56:57Z</time>
      </trkpt>
      <trkpt lat="51.230383520966" lon="4.463837674282">
        <ele>0</ele>
        <time>2019-04-30T20:57:58Z</time>
      </trkpt>
      <trkpt lat="51.229976998816" lon="4.464160042156">
        <ele>1.6</ele>
        <time>2019-04-30T20:58:46Z</time>
      </trkpt>
      <trkpt lat="51.229922767923" lon="4.464182924743">
        <ele>0</ele>
        <time>2019-04-30T20:59:07Z</time>
      </trkpt>
      <trkpt lat="51.229902148449" lon="4.464190049358">
        <ele>0</ele>
        <time>2019-04-30T20:59:09Z</time>
      </trkpt>
      <trkpt lat="51.229744736367" lon="4.464209579185">
        <ele>2.2</ele>
        <time>2019-04-30T20:59:24Z</time>
      </trkpt>
      <trkpt lat="51.229628647052" lon="4.464231707401">
        <ele>6.2</ele>
        <time>2019-04-30T20:59:39Z</time>
      </trkpt>
      <trkpt lat="51.229288174274" lon="4.464247381554">
        <ele>16.2</ele>
        <time>2019-04-30T21:00:08Z</time>
      </trkpt>
      <trkpt lat="51.229130678373" lon="4.464229444288">
        <ele>8</ele>
        <time>2019-04-30T21:00:50Z</time>
      </trkpt>
      <trkpt lat="51.229065383372" lon="4.464032469638">
        <ele>2.2</ele>
        <time>2019-04-30T21:01:11Z</time>
      </trkpt>
      <trkpt lat="51.229083488276" lon="4.463937335073">
        <ele>0.8</ele>
        <time>2019-04-30T21:01:17Z</time>
      </trkpt>
      <trkpt lat="51.22907644748" lon="4.463943621498">
        <ele>0.4</ele>
        <time>2019-04-30T21:01:27Z</time>
      </trkpt>
      <trkpt lat="51.229025904623" lon="4.46414294308">
        <ele>0</ele>
        <time>2019-04-30T21:01:44Z</time>
      </trkpt>
      <trkpt lat="51.228797833124" lon="4.464169346065">
        <ele>0</ele>
        <time>2019-04-30T21:02:08Z</time>
      </trkpt>
      <trkpt lat="51.228689874252" lon="4.464185439313">
        <ele>0</ele>
        <time>2019-04-30T21:02:20Z</time>
      </trkpt>
      <trkpt lat="51.228523409718" lon="4.464092232585">
        <ele>0</ele>
        <time>2019-04-30T21:02:42Z</time>
      </trkpt>
      <trkpt lat="51.228340265203" lon="4.463429056657">
        <ele>0</ele>
        <time>2019-04-30T21:04:13Z</time>
      </trkpt>
      <trkpt lat="51.227969869042" lon="4.463021193403">
        <ele>0</ele>
        <time>2019-04-30T21:05:11Z</time>
      </trkpt>
      <trkpt lat="51.227903316756" lon="4.462337733277">
        <ele>0</ele>
        <time>2019-04-30T21:05:48Z</time>
      </trkpt>
      <trkpt lat="51.227829975131" lon="4.461841860073">
        <ele>0</ele>
        <time>2019-04-30T21:06:21Z</time>
      </trkpt>
      <trkpt lat="51.227789658192" lon="4.461518067276">
        <ele>0.4</ele>
        <time>2019-04-30T21:06:43Z</time>
      </trkpt>
      <trkpt lat="51.227815977358" lon="4.460787249415">
        <ele>0.8</ele>
        <time>2019-04-30T21:07:34Z</time>
      </trkpt>
      <trkpt lat="51.22744952069" lon="4.460801163369">
        <ele>11.2</ele>
        <time>2019-04-30T21:08:25Z</time>
      </trkpt>
      <trkpt lat="51.227331838814" lon="4.460409728639">
        <ele>1.8</ele>
        <time>2019-04-30T21:08:52Z</time>
      </trkpt>
      <trkpt lat="51.227139055114" lon="4.459760382846">
        <ele>0</ele>
        <time>2019-04-30T21:09:34Z</time>
      </trkpt>
      <trkpt lat="51.227099660184" lon="4.459609927741">
        <ele>0</ele>
        <time>2019-04-30T21:09:46Z</time>
      </trkpt>
      <trkpt lat="51.227034281364" lon="4.459457125704">
        <ele>0</ele>
        <time>2019-04-30T21:10:04Z</time>
      </trkpt>
      <trkpt lat="51.227117262174" lon="4.459098883298">
        <ele>0</ele>
        <time>2019-04-30T21:10:45Z</time>
      </trkpt>
      <trkpt lat="51.227398474919" lon="4.458938705189">
        <ele>3</ele>
        <time>2019-04-30T21:11:26Z</time>
      </trkpt>
      <trkpt lat="51.227645154236" lon="4.458843235348">
        <ele>2.8</ele>
        <time>2019-04-30T21:11:52Z</time>
      </trkpt>
      <trkpt lat="51.228074726611" lon="4.458578618765">
        <ele>0</ele>
        <time>2019-04-30T21:12:31Z</time>
      </trkpt>
      <trkpt lat="51.228272874727" lon="4.458459763423">
        <ele>0</ele>
        <time>2019-04-30T21:12:59Z</time>
      </trkpt>
      <trkpt lat="51.228636900644" lon="4.458188608958">
        <ele>0.4</ele>
        <time>2019-04-30T21:13:35Z</time>
      </trkpt>
      <trkpt lat="51.228706386595" lon="4.458180981429">
        <ele>0.4</ele>
        <time>2019-04-30T21:13:41Z</time>
      </trkpt>
      <trkpt lat="51.229161607584" lon="4.458132198771">
        <ele>0</ele>
        <time>2019-04-30T21:14:39Z</time>
      </trkpt>
      <trkpt lat="51.229607524664" lon="4.457973697042">
        <ele>1.4</ele>
        <time>2019-04-30T21:15:24Z</time>
      </trkpt>
      <trkpt lat="51.229926455959" lon="4.457803376834">
        <ele>0</ele>
        <time>2019-04-30T21:16:01Z</time>
      </trkpt>
      <trkpt lat="51.230135416726" lon="4.457768843406">
        <ele>0</ele>
        <time>2019-04-30T21:16:24Z</time>
      </trkpt>
      <trkpt lat="51.230443870646" lon="4.457777141487">
        <ele>0</ele>
        <time>2019-04-30T21:17:33Z</time>
      </trkpt>
      <trkpt lat="51.230349490452" lon="4.457748140113">
        <ele>0</ele>
        <time>2019-04-30T21:17:45Z</time>
      </trkpt>
      <trkpt lat="51.230003904715" lon="4.457870934948">
        <ele>0</ele>
        <time>2019-04-30T21:18:29Z</time>
      </trkpt>
      <trkpt lat="51.229838194552" lon="4.457913598819">
        <ele>0</ele>
        <time>2019-04-30T21:18:56Z</time>
      </trkpt>
      <trkpt lat="51.229709783844" lon="4.4579805702">
        <ele>0</ele>
        <time>2019-04-30T21:19:48Z</time>
      </trkpt>
    </trkseg>
  </trk>
</gpx>